King Salmon, AK

4:13 AM AKDT on September 01, 2014 (GMT -0800)
Port Heiden | Change Station
CLOSE
Current Station
Airport
Location: Port Heiden,
Elevation: 95 ft
Nearby Weather Stations

Elev 95 ft 56.96 °N, 158.63 °W | Updated 17 minutes ago

Mostly Cloudy
Mostly Cloudy
50 °F
Feels Like 50 °F
N
12
Wind Variable Wind from SW

Today
High -- | Low -- °F
--% Chance of Precip.
Yesterday
High -- | Low -- °F
Precip. -- in
7:37 AM 9:30 PM
Waxing Crescent, 40% visible
Pressure 30.16 in
Visibility 10.0 miles
Clouds Mostly Cloudy 2500 ft
Mostly Cloudy 3000 ft
Dew Point 37 °F
Humidity 62%
Rainfall 0.00 in
Snow Depth Not available.
UV 0 out of 12
Pollen Not available.
Air Quality Not available.
Flu Activity Not available.
METAR PAPH 011156Z AUTO 22010KT 180V250 10SM BKN025 BKN030 10/03 A3016 RMK AO1 10100 20080 52017

More Conditions Fewer Conditions

Pressure 30.16 in
Visibility 10.0 miles
Clouds Mostly Cloudy 2500 ft
Mostly Cloudy 3000 ft
Dew Point 37 °F
Humidity 62%
Rainfall 0.00 in
Snow Depth Not available.
UV 0 out of 12
Pollen Not available.
Air Quality Not available.
Flu Activity Not available.
METAR PAPH 011156Z AUTO 22010KT 180V250 10SM BKN025 BKN030 10/03 A3016 RMK AO1 10100 20080 52017

More Conditions Fewer Conditions

10-Day Weather Forecast

Almanac

Astronomy

Sep. 01, 2014 Rise Set
Actual Time 7:37 AM AKDT 9:30 PM AKDT
Civil Twilight 6:56 AM AKDT 10:10 PM AKDT
Nautical Twilight 6:05 AM AKDT 11:01 PM AKDT
Astronomical Twilight 5:04 AM AKDT 12:01 AM AKDT
Moon 3:56 PM AKDT No Moon Set
Length of Visible Light 15h 13m
Length of Day
13h 52m
Tomorrow will be 4m 43s shorter.
Waxing Crescent, 40% of the Moon is Illuminated
Today
Waxing Crescent
Sep 2
First Quarter
Sep 8
Full
Sep 15
Last Quarter
Sep 24
New

Today's Extremes

State Highs State Lows

Community

WunderPhotos

Upload Photos

1,749,195 photos uploaded!

Nearby

Snow Depth

Station Depth Elevation
Port Graham 0 in 300 ft
Mcneil Canyon 1 in 1320 ft
MF Bradley River 2 in 2300 ft
Nuka Glacier 164 in 1250 ft
Cooper Lake 21 in 1200 ft

Earthquake Activity

City Distance Mag. Time & Date
No recent earthquake activity has been reported nearby.
Minimum magnitude displayed is 2.5.

Coastal Water Temperatures

Place Temperature
No Stations Reporting

Nearby Weather Stations